sensor_id;sensor_type;location;lat;lon;timestamp;pressure;altitude;pressure_sealevel;temperature;humidity
49529;BME280;35423;37.320;-121.762;2023-02-19T00:02:15;100000.89;;;34.91;5.96
49529;BME280;35423;37.320;-121.762;2023-02-19T00:04:40;99996.24;;;34.44;6.09
49529;BME280;35423;37.320;-121.762;2023-02-19T00:07:07;100000.04;;;34.48;6.19
49529;BME280;35423;37.320;-121.762;2023-02-19T00:09:33;100004.81;;;34.19;6.40
49529;BME280;35423;37.320;-121.762;2023-02-19T00:11:59;100004.53;;;33.85;6.53
49529;BME280;35423;37.320;-121.762;2023-02-19T00:14:27;99995.78;;;33.63;6.60
49529;BME280;35423;37.320;-121.762;2023-02-19T00:16:55;99994.31;;;33.59;6.70
49529;BME280;35423;37.320;-121.762;2023-02-19T00:19:22;99993.14;;;33.58;6.81
49529;BME280;35423;37.320;-121.762;2023-02-19T00:21:49;99987.33;;;33.34;6.92
49529;BME280;35423;37.320;-121.762;2023-02-19T00:24:14;99983.18;;;33.02;6.94
49529;BME280;35423;37.320;-121.762;2023-02-19T00:26:43;99976.60;;;32.76;6.96
49529;BME280;35423;37.320;-121.762;2023-02-19T00:29:12;99977.42;;;32.50;6.99
49529;BME280;35423;37.320;-121.762;2023-02-19T00:31:36;99978.18;;;32.23;7.06
49529;BME280;35423;37.320;-121.762;2023-02-19T00:34:04;99976.70;;;32.21;7.19
49529;BME280;35423;37.320;-121.762;2023-02-19T00:36:29;99979.56;;;31.98;7.31
49529;BME280;35423;37.320;-121.762;2023-02-19T00:38:55;99978.23;;;31.80;7.30
49529;BME280;35423;37.320;-121.762;2023-02-19T00:41:25;99980.42;;;31.92;7.42
49529;BME280;35423;37.320;-121.762;2023-02-19T00:43:54;99982.76;;;31.45;7.46
49529;BME280;35423;37.320;-121.762;2023-02-19T00:46:21;99985.09;;;31.50;7.69
49529;BME280;35423;37.320;-121.762;2023-02-19T00:48:50;99986.63;;;31.40;7.78
49529;BME280;35423;37.320;-121.762;2023-02-19T00:51:17;99984.79;;;31.51;7.85
49529;BME280;35423;37.320;-121.762;2023-02-19T00:53:42;99981.04;;;31.41;7.92
49529;BME280;35423;37.320;-121.762;2023-02-19T00:56:11;99980.19;;;31.47;7.94
49529;BME280;35423;37.320;-121.762;2023-02-19T00:58:35;99984.06;;;31.36;8.19
49529;BME280;35423;37.320;-121.762;2023-02-19T01:01:03;99989.69;;;31.23;8.29
49529;BME280;35423;37.320;-121.762;2023-02-19T01:03:33;99992.55;;;31.11;8.34
49529;BME280;35423;37.320;-121.762;2023-02-19T01:06:01;99994.00;;;30.76;8.28
49529;BME280;35423;37.320;-121.762;2023-02-19T01:08:32;100000.13;;;30.79;8.44
49529;BME280;35423;37.320;-121.762;2023-02-19T01:10:57;100004.53;;;30.60;8.69
49529;BME280;35423;37.320;-121.762;2023-02-19T01:13:25;100008.91;;;30.46;8.53
49529;BME280;35423;37.320;-121.762;2023-02-19T01:15:51;100009.97;;;30.35;8.69
49529;BME280;35423;37.320;-121.762;2023-02-19T01:18:17;100014.89;;;30.24;9.01
49529;BME280;35423;37.320;-121.762;2023-02-19T01:20:45;100019.37;;;30.07;9.06
49529;BME280;35423;37.320;-121.762;2023-02-19T01:23:12;100022.82;;;29.94;9.24
49529;BME280;35423;37.320;-121.762;2023-02-19T01:25:40;100027.88;;;29.80;9.33
49529;BME280;35423;37.320;-121.762;2023-02-19T01:28:06;100035.15;;;29.89;9.47
49529;BME280;35423;37.320;-121.762;2023-02-19T01:30:34;100039.75;;;29.71;9.55
49529;BME280;35423;37.320;-121.762;2023-02-19T01:33:04;100041.45;;;29.53;9.41
49529;BME280;35423;37.320;-121.762;2023-02-19T01:35:30;100047.01;;;29.54;9.45
49529;BME280;35423;37.320;-121.762;2023-02-19T01:37:59;100047.64;;;29.35;9.58
49529;BME280;35423;37.320;-121.762;2023-02-19T01:40:26;100045.70;;;29.16;9.55
49529;BME280;35423;37.320;-121.762;2023-02-19T01:42:51;100041.80;;;28.97;9.70
49529;BME280;35423;37.320;-121.762;2023-02-19T01:45:26;100038.68;;;28.82;9.88
49529;BME280;35423;37.320;-121.762;2023-02-19T01:47:55;100040.91;;;28.72;9.63
49529;BME280;35423;37.320;-121.762;2023-02-19T01:50:16;100044.15;;;28.81;9.64
49529;BME280;35423;37.320;-121.762;2023-02-19T01:52:45;100041.66;;;28.65;9.78
49529;BME280;35423;37.320;-121.762;2023-02-19T01:55:17;100035.90;;;28.25;10.02
49529;BME280;35423;37.320;-121.762;2023-02-19T01:57:46;100038.09;;;28.33;10.22
49529;BME280;35423;37.320;-121.762;2023-02-19T02:00:14;100048.04;;;28.19;10.32
49529;BME280;35423;37.320;-121.762;2023-02-19T02:02:36;100061.91;;;28.00;10.54
49529;BME280;35423;37.320;-121.762;2023-02-19T02:05:01;100069.86;;;28.09;10.65
49529;BME280;35423;37.320;-121.762;2023-02-19T02:07:27;100070.78;;;27.93;10.89
49529;BME280;35423;37.320;-121.762;2023-02-19T02:09:53;100070.18;;;27.77;11.03
49529;BME280;35423;37.320;-121.762;2023-02-19T02:12:18;100067.26;;;27.85;11.23
49529;BME280;35423;37.320;-121.762;2023-02-19T02:14:46;100065.02;;;27.47;11.35
49529;BME280;35423;37.320;-121.762;2023-02-19T02:17:17;100061.46;;;27.16;11.51
49529;BME280;35423;37.320;-121.762;2023-02-19T02:19:47;100061.73;;;26.83;11.55
49529;BME280;35423;37.320;-121.762;2023-02-19T02:22:06;100062.14;;;26.78;11.66
49529;BME280;35423;37.320;-121.762;2023-02-19T02:24:38;100063.18;;;26.96;11.73
49529;BME280;35423;37.320;-121.762;2023-02-19T02:27:04;100061.58;;;26.59;11.79
49529;BME280;35423;37.320;-121.762;2023-02-19T02:29:34;100058.58;;;26.75;11.92
49529;BME280;35423;37.320;-121.762;2023-02-19T02:31:51;100052.98;;;26.70;11.93
49529;BME280;35423;37.320;-121.762;2023-02-19T02:34:17;100048.45;;;26.67;11.94
49529;BME280;35423;37.320;-121.762;2023-02-19T02:36:41;100045.22;;;26.61;12.03
49529;BME280;35423;37.320;-121.762;2023-02-19T02:39:15;100042.28;;;26.16;12.07
49529;BME280;35423;37.320;-121.762;2023-02-19T02:41:42;100035.58;;;26.34;11.98
49529;BME280;35423;37.320;-121.762;2023-02-19T02:44:03;100036.48;;;26.25;12.09
49529;BME280;35423;37.320;-121.762;2023-02-19T02:46:32;100044.44;;;26.36;11.99
49529;BME280;35423;37.320;-121.762;2023-02-19T02:48:55;100047.02;;;26.27;11.83
49529;BME280;35423;37.320;-121.762;2023-02-19T02:51:28;100045.27;;;25.88;11.91
49529;BME280;35423;37.320;-121.762;2023-02-19T02:53:55;100048.88;;;26.25;11.98
49529;BME280;35423;37.320;-121.762;2023-02-19T02:56:18;100049.72;;;25.94;12.03
49529;BME280;35423;37.320;-121.762;2023-02-19T02:58:45;100053.14;;;26.00;12.22
49529;BME280;35423;37.320;-121.762;2023-02-19T03:01:18;100057.32;;;25.82;12.33
49529;BME280;35423;37.320;-121.762;2023-02-19T03:03:44;100059.80;;;25.49;12.08
49529;BME280;35423;37.320;-121.762;2023-02-19T03:06:11;100062.14;;;25.53;12.00
49529;BME280;35423;37.320;-121.762;2023-02-19T03:08:47;100072.63;;;25.16;12.16
49529;BME280;35423;37.320;-121.762;2023-02-19T03:11:09;100079.74;;;25.53;12.31
49529;BME280;35423;37.320;-121.762;2023-02-19T03:13:36;100079.26;;;25.20;12.40
49529;BME280;35423;37.320;-121.762;2023-02-19T03:16:11;100081.59;;;25.38;12.47
49529;BME280;35423;37.320;-121.762;2023-02-19T03:18:33;100083.07;;;25.00;12.52
49529;BME280;35423;37.320;-121.762;2023-02-19T03:20:58;100083.87;;;25.14;12.57
49529;BME280;35423;37.320;-121.762;2023-02-19T03:23:26;100085.21;;;25.05;12.61
49529;BME280;35423;37.320;-121.762;2023-02-19T03:25:50;100083.01;;;24.95;12.61
49529;BME280;35423;37.320;-121.762;2023-02-19T03:28:18;100076.64;;;24.84;12.65
49529;BME280;35423;37.320;-121.762;2023-02-19T03:30:46;100068.75;;;24.90;12.71
49529;BME280;35423;37.320;-121.762;2023-02-19T03:33:11;100071.51;;;24.76;12.80
49529;BME280;35423;37.320;-121.762;2023-02-19T03:35:43;100075.59;;;24.68;12.82
49529;BME280;35423;37.320;-121.762;2023-02-19T03:38:10;100073.97;;;24.55;12.84
49529;BME280;35423;37.320;-121.762;2023-02-19T03:40:39;100073.14;;;24.38;12.89
49529;BME280;35423;37.320;-121.762;2023-02-19T03:43:06;100079.29;;;24.24;12.94
49529;BME280;35423;37.320;-121.762;2023-02-19T03:45:36;100084.55;;;24.13;12.93
49529;BME280;35423;37.320;-121.762;2023-02-19T03:48:04;100088.10;;;24.25;12.89
49529;BME280;35423;37.320;-121.762;2023-02-19T03:50:26;100094.18;;;23.84;13.00
49529;BME280;35423;37.320;-121.762;2023-02-19T03:52:58;100096.15;;;24.29;13.00
49529;BME280;35423;37.320;-121.762;2023-02-19T03:55:24;100099.48;;;23.90;13.13
49529;BME280;35423;37.320;-121.762;2023-02-19T03:57:50;100108.08;;;23.83;13.15
49529;BME280;35423;37.320;-121.762;2023-02-19T04:00:12;100120.89;;;23.68;13.29
49529;BME280;35423;37.320;-121.762;2023-02-19T04:02:43;100126.83;;;23.56;13.35
49529;BME280;35423;37.320;-121.762;2023-02-19T04:05:08;100126.88;;;23.18;13.56
49529;BME280;35423;37.320;-121.762;2023-02-19T04:07:34;100127.88;;;23.53;13.66
49529;BME280;35423;37.320;-121.762;2023-02-19T04:09:54;100130.71;;;23.62;13.71
49529;BME280;35423;37.320;-121.762;2023-02-19T04:12:22;100130.78;;;23.27;13.77
49529;BME280;35423;37.320;-121.762;2023-02-19T04:14:53;100132.17;;;23.16;13.85
49529;BME280;35423;37.320;-121.762;2023-02-19T04:17:25;100131.87;;;23.02;13.89
49529;BME280;35423;37.320;-121.762;2023-02-19T04:19:48;100134.96;;;22.89;13.83
49529;BME280;35423;37.320;-121.762;2023-02-19T04:22:13;100141.05;;;22.94;13.88
49529;BME280;35423;37.320;-121.762;2023-02-19T04:24:45;100143.93;;;22.79;13.88
49529;BME280;35423;37.320;-121.762;2023-02-19T04:27:14;100143.47;;;22.68;13.82
49529;BME280;35423;37.320;-121.762;2023-02-19T04:29:35;100145.19;;;22.65;13.68
49529;BME280;35423;37.320;-121.762;2023-02-19T04:32:02;100148.29;;;22.59;13.52
49529;BME280;35423;37.320;-121.762;2023-02-19T04:34:27;100151.96;;;22.47;13.75
49529;BME280;35423;37.320;-121.762;2023-02-19T04:36:53;100162.52;;;22.65;13.83
49529;BME280;35423;37.320;-121.762;2023-02-19T04:39:19;100163.97;;;22.31;13.91
49529;BME280;35423;37.320;-121.762;2023-02-19T04:41:45;100163.39;;;22.24;13.94
49529;BME280;35423;37.320;-121.762;2023-02-19T04:44:13;100161.27;;;22.10;14.05
49529;BME280;35423;37.320;-121.762;2023-02-19T04:46:43;100160.37;;;21.98;14.09
49529;BME280;35423;37.320;-121.762;2023-02-19T04:49:09;100163.98;;;22.14;14.15
49529;BME280;35423;37.320;-121.762;2023-02-19T04:51:34;100161.91;;;22.01;14.20
49529;BME280;35423;37.320;-121.762;2023-02-19T04:54:01;100163.76;;;21.89;14.24
49529;BME280;35423;37.320;-121.762;2023-02-19T04:56:27;100168.29;;;21.76;14.23
49529;BME280;35423;37.320;-121.762;2023-02-19T04:58:53;100171.44;;;21.69;14.15
49529;BME280;35423;37.320;-121.762;2023-02-19T05:01:18;100176.93;;;21.62;14.09
49529;BME280;35423;37.320;-121.762;2023-02-19T05:03:45;100181.85;;;21.54;14.22
49529;BME280;35423;37.320;-121.762;2023-02-19T05:06:12;100184.97;;;21.46;14.20
49529;BME280;35423;37.320;-121.762;2023-02-19T05:08:40;100184.57;;;21.33;14.34
49529;BME280;35423;37.320;-121.762;2023-02-19T05:11:08;100187.93;;;21.24;14.43
49529;BME280;35423;37.320;-121.762;2023-02-19T05:13:34;100190.88;;;21.15;14.40
49529;BME280;35423;37.320;-121.762;2023-02-19T05:16:03;100194.53;;;21.27;14.42
49529;BME280;35423;37.320;-121.762;2023-02-19T05:18:27;100195.88;;;21.36;14.60
49529;BME280;35423;37.320;-121.762;2023-02-19T05:20:54;100202.87;;;21.26;14.61
49529;BME280;35423;37.320;-121.762;2023-02-19T05:23:22;100205.75;;;21.15;14.61
49529;BME280;35423;37.320;-121.762;2023-02-19T05:25:48;100205.75;;;21.01;14.75
49529;BME280;35423;37.320;-121.762;2023-02-19T05:28:15;100207.07;;;20.67;14.82
49529;BME280;35423;37.320;-121.762;2023-02-19T05:30:39;100200.92;;;20.82;14.82
49529;BME280;35423;37.320;-121.762;2023-02-19T05:33:18;100202.51;;;20.77;14.81
49529;BME280;35423;37.320;-121.762;2023-02-19T05:35:41;100207.41;;;20.94;14.80
49529;BME280;35423;37.320;-121.762;2023-02-19T05:38:08;100210.63;;;20.81;14.84
49529;BME280;35423;37.320;-121.762;2023-02-19T05:40:37;100213.06;;;20.72;14.82
49529;BME280;35423;37.320;-121.762;2023-02-19T05:43:05;100208.92;;;20.34;14.92
49529;BME280;35423;37.320;-121.762;2023-02-19T05:45:31;100211.05;;;20.55;14.92
49529;BME280;35423;37.320;-121.762;2023-02-19T05:47:57;100212.43;;;20.48;14.95
49529;BME280;35423;37.320;-121.762;2023-02-19T05:50:25;100213.78;;;20.45;15.07
49529;BME280;35423;37.320;-121.762;2023-02-19T05:52:51;100218.52;;;20.61;15.09
49529;BME280;35423;37.320;-121.762;2023-02-19T05:55:16;100223.04;;;20.01;15.06
49529;BME280;35423;37.320;-121.762;2023-02-19T05:57:45;100225.66;;;20.41;15.10
49529;BME280;35423;37.320;-121.762;2023-02-19T06:00:12;100226.26;;;20.15;15.09
49529;BME280;35423;37.320;-121.762;2023-02-19T06:02:39;100225.44;;;20.28;15.12
49529;BME280;35423;37.320;-121.762;2023-02-19T06:05:07;100220.98;;;20.19;15.16
49529;BME280;35423;37.320;-121.762;2023-02-19T06:07:33;100215.83;;;19.79;15.42
49529;BME280;35423;37.320;-121.762;2023-02-19T06:09:57;100213.25;;;19.97;15.45
49529;BME280;35423;37.320;-121.762;2023-02-19T06:12:25;100210.75;;;19.89;15.45
49529;BME280;35423;37.320;-121.762;2023-02-19T06:14:52;100210.46;;;19.78;15.56
49529;BME280;35423;37.320;-121.762;2023-02-19T06:17:20;100211.45;;;19.71;15.60
49529;BME280;35423;37.320;-121.762;2023-02-19T06:19:48;100211.36;;;19.64;15.64
49529;BME280;35423;37.320;-121.762;2023-02-19T06:22:16;100214.55;;;19.60;15.78
49529;BME280;35423;37.320;-121.762;2023-02-19T06:24:42;100213.65;;;19.55;15.83
49529;BME280;35423;37.320;-121.762;2023-02-19T06:27:09;100218.07;;;19.46;15.90
49529;BME280;35423;37.320;-121.762;2023-02-19T06:29:37;100222.99;;;19.40;16.00
49529;BME280;35423;37.320;-121.762;2023-02-19T06:32:06;100226.40;;;19.30;16.14
49529;BME280;35423;37.320;-121.762;2023-02-19T06:34:34;100223.98;;;19.47;16.24
49529;BME280;35423;37.320;-121.762;2023-02-19T06:37:00;100218.34;;;19.58;16.34
49529;BME280;35423;37.320;-121.762;2023-02-19T06:39:26;100220.63;;;19.50;16.39
49529;BME280;35423;37.320;-121.762;2023-02-19T06:41:54;100219.57;;;19.21;16.46
49529;BME280;35423;37.320;-121.762;2023-02-19T06:44:20;100220.79;;;19.31;16.61
49529;BME280;35423;37.320;-121.762;2023-02-19T06:46:48;100223.36;;;19.25;16.73
49529;BME280;35423;37.320;-121.762;2023-02-19T06:49:15;100222.68;;;18.69;16.77
49529;BME280;35423;37.320;-121.762;2023-02-19T06:51:40;100225.44;;;18.92;16.77
49529;BME280;35423;37.320;-121.762;2023-02-19T06:54:06;100223.53;;;18.55;16.86
49529;BME280;35423;37.320;-121.762;2023-02-19T06:56:33;100225.22;;;18.47;16.90
49529;BME280;35423;37.320;-121.762;2023-02-19T06:58:58;100224.27;;;18.89;16.99
49529;BME280;35423;37.320;-121.762;2023-02-19T07:01:24;100224.86;;;18.81;17.09
49529;BME280;35423;37.320;-121.762;2023-02-19T07:03:49;100226.88;;;18.74;17.22
49529;BME280;35423;37.320;-121.762;2023-02-19T07:06:15;100227.95;;;18.92;17.50
49529;BME280;35423;37.320;-121.762;2023-02-19T07:08:41;100229.88;;;18.64;17.70
49529;BME280;35423;37.320;-121.762;2023-02-19T07:11:11;100227.93;;;18.57;17.89
49529;BME280;35423;37.320;-121.762;2023-02-19T07:13:38;100224.25;;;18.53;17.95
49529;BME280;35423;37.320;-121.762;2023-02-19T07:16:07;100228.08;;;18.44;18.05
49529;BME280;35423;37.320;-121.762;2023-02-19T07:18:32;100226.78;;;18.30;18.15
49529;BME280;35423;37.320;-121.762;2023-02-19T07:21:02;100227.39;;;18.48;18.20
49529;BME280;35423;37.320;-121.762;2023-02-19T07:23:22;100227.16;;;18.72;18.13
49529;BME280;35423;37.320;-121.762;2023-02-19T07:25:53;100227.05;;;18.68;18.10
49529;BME280;35423;37.320;-121.762;2023-02-19T07:28:18;100227.51;;;18.32;17.99
49529;BME280;35423;37.320;-121.762;2023-02-19T07:30:43;100230.41;;;18.23;17.97
49529;BME280;35423;37.320;-121.762;2023-02-19T07:33:10;100225.70;;;18.22;17.92
49529;BME280;35423;37.320;-121.762;2023-02-19T07:35:35;100226.70;;;18.17;17.91
49529;BME280;35423;37.320;-121.762;2023-02-19T07:38:03;100229.56;;;18.09;17.96
49529;BME280;35423;37.320;-121.762;2023-02-19T07:40:29;100234.06;;;18.00;18.05
49529;BME280;35423;37.320;-121.762;2023-02-19T07:42:55;100235.93;;;18.21;18.09
49529;BME280;35423;37.320;-121.762;2023-02-19T07:45:22;100232.70;;;17.86;18.14
49529;BME280;35423;37.320;-121.762;2023-02-19T07:47:48;100234.31;;;17.80;18.28
49529;BME280;35423;37.320;-121.762;2023-02-19T07:50:13;100237.79;;;17.76;18.34
49529;BME280;35423;37.320;-121.762;2023-02-19T07:52:44;100242.21;;;17.92;18.63
49529;BME280;35423;37.320;-121.762;2023-02-19T07:55:09;100239.78;;;17.84;18.83
49529;BME280;35423;37.320;-121.762;2023-02-19T07:57:35;100238.59;;;17.51;18.91
49529;BME280;35423;37.320;-121.762;2023-02-19T08:00:01;100238.77;;;17.72;19.01
49529;BME280;35423;37.320;-121.762;2023-02-19T08:02:30;100232.42;;;17.83;18.74
49529;BME280;35423;37.320;-121.762;2023-02-19T08:04:56;100226.61;;;17.96;18.79
49529;BME280;35423;37.320;-121.762;2023-02-19T08:07:23;100225.02;;;17.80;18.90
49529;BME280;35423;37.320;-121.762;2023-02-19T08:09:49;100228.55;;;17.64;18.93
49529;BME280;35423;37.320;-121.762;2023-02-19T08:12:16;100225.57;;;17.51;18.93
49529;BME280;35423;37.320;-121.762;2023-02-19T08:14:43;100226.58;;;17.38;18.96
49529;BME280;35423;37.320;-121.762;2023-02-19T08:17:08;100227.88;;;17.23;19.07
49529;BME280;35423;37.320;-121.762;2023-02-19T08:19:36;100230.55;;;17.12;19.20
49529;BME280;35423;37.320;-121.762;2023-02-19T08:22:01;100237.36;;;17.03;19.38
49529;BME280;35423;37.320;-121.762;2023-02-19T08:24:28;100240.05;;;16.98;19.54
49529;BME280;35423;37.320;-121.762;2023-02-19T08:26:54;100234.26;;;16.96;19.58
49529;BME280;35423;37.320;-121.762;2023-02-19T08:29:19;100236.13;;;17.11;19.51
49529;BME280;35423;37.320;-121.762;2023-02-19T08:31:45;100228.02;;;16.93;19.45
49529;BME280;35423;37.320;-121.762;2023-02-19T08:34:13;100222.62;;;16.67;19.46
49529;BME280;35423;37.320;-121.762;2023-02-19T08:36:39;100224.10;;;17.05;19.48
49529;BME280;35423;37.320;-121.762;2023-02-19T08:39:04;100224.11;;;17.17;19.66
49529;BME280;35423;37.320;-121.762;2023-02-19T08:41:31;100224.34;;;16.81;19.78
49529;BME280;35423;37.320;-121.762;2023-02-19T08:43:56;100222.05;;;16.93;19.85
49529;BME280;35423;37.320;-121.762;2023-02-19T08:46:26;100227.58;;;16.40;19.79
49529;BME280;35423;37.320;-121.762;2023-02-19T08:48:46;100230.44;;;16.73;19.88
49529;BME280;35423;37.320;-121.762;2023-02-19T08:51:14;100238.14;;;16.67;19.91
49529;BME280;35423;37.320;-121.762;2023-02-19T08:53:41;100240.49;;;16.40;19.87
49529;BME280;35423;37.320;-121.762;2023-02-19T08:56:08;100239.90;;;16.53;19.99
49529;BME280;35423;37.320;-121.762;2023-02-19T08:58:34;100242.40;;;16.29;20.15
49529;BME280;35423;37.320;-121.762;2023-02-19T09:00:59;100241.92;;;16.24;20.16
49529;BME280;35423;37.320;-121.762;2023-02-19T09:03:27;100239.61;;;16.38;20.13
49529;BME280;35423;37.320;-121.762;2023-02-19T09:05:53;100235.77;;;16.26;20.15
49529;BME280;35423;37.320;-121.762;2023-02-19T09:08:22;100238.19;;;16.46;20.22
49529;BME280;35423;37.320;-121.762;2023-02-19T09:13:13;100239.68;;;16.04;20.29
49529;BME280;35423;37.320;-121.762;2023-02-19T09:15:41;100236.53;;;15.99;20.40
49529;BME280;35423;37.320;-121.762;2023-02-19T09:18:09;100236.33;;;15.94;20.44
49529;BME280;35423;37.320;-121.762;2023-02-19T09:20:36;100240.58;;;16.16;20.50
49529;BME280;35423;37.320;-121.762;2023-02-19T09:23:01;100241.76;;;15.85;20.50
49529;BME280;35423;37.320;-121.762;2023-02-19T09:25:29;100243.79;;;15.80;20.53
49529;BME280;35423;37.320;-121.762;2023-02-19T09:27:55;100241.53;;;15.72;20.53
49529;BME280;35423;37.320;-121.762;2023-02-19T09:30:20;100240.44;;;15.63;20.54
49529;BME280;35423;37.320;-121.762;2023-02-19T09:32:46;100239.52;;;15.59;20.50
49529;BME280;35423;37.320;-121.762;2023-02-19T09:35:20;100240.52;;;15.50;20.58
49529;BME280;35423;37.320;-121.762;2023-02-19T09:37:45;100243.29;;;15.94;20.56
49529;BME280;35423;37.320;-121.762;2023-02-19T09:40:11;100242.61;;;15.43;20.64
49529;BME280;35423;37.320;-121.762;2023-02-19T09:42:48;100243.41;;;15.90;20.72
49529;BME280;35423;37.320;-121.762;2023-02-19T09:45:19;100243.18;;;15.87;20.80
49529;BME280;35423;37.320;-121.762;2023-02-19T09:47:41;100246.05;;;15.85;20.86
49529;BME280;35423;37.320;-121.762;2023-02-19T09:50:13;100244.61;;;15.59;20.76
49529;BME280;35423;37.320;-121.762;2023-02-19T09:52:40;100244.42;;;15.75;20.83
49529;BME280;35423;37.320;-121.762;2023-02-19T09:55:16;100241.18;;;15.62;20.87
49529;BME280;35423;37.320;-121.762;2023-02-19T09:57:40;100236.19;;;15.55;20.96
49529;BME280;35423;37.320;-121.762;2023-02-19T10:00:20;100233.00;;;15.52;20.92
49529;BME280;35423;37.320;-121.762;2023-02-19T10:02:35;100229.75;;;15.31;20.97
49529;BME280;35423;37.320;-121.762;2023-02-19T10:05:05;100227.09;;;15.56;20.90
49529;BME280;35423;37.320;-121.762;2023-02-19T10:07:36;100221.21;;;15.57;20.86
49529;BME280;35423;37.320;-121.762;2023-02-19T10:10:01;100217.40;;;15.57;20.87
49529;BME280;35423;37.320;-121.762;2023-02-19T10:12:28;100217.59;;;15.51;20.89
49529;BME280;35423;37.320;-121.762;2023-02-19T10:14:53;100217.51;;;15.23;20.94
49529;BME280;35423;37.320;-121.762;2023-02-19T10:17:23;100215.59;;;15.37;20.96
49529;BME280;35423;37.320;-121.762;2023-02-19T10:19:43;100214.75;;;15.53;21.03
49529;BME280;35423;37.320;-121.762;2023-02-19T10:22:11;100211.98;;;15.26;21.03
49529;BME280;35423;37.320;-121.762;2023-02-19T10:24:41;100210.25;;;15.24;21.03
49529;BME280;35423;37.320;-121.762;2023-02-19T10:27:11;100207.88;;;15.20;21.13
49529;BME280;35423;37.320;-121.762;2023-02-19T10:29:30;100205.01;;;15.12;21.22
49529;BME280;35423;37.320;-121.762;2023-02-19T10:34:26;100190.35;;;15.34;21.35
49529;BME280;35423;37.320;-121.762;2023-02-19T10:36:52;100192.08;;;15.31;21.41
49529;BME280;35423;37.320;-121.762;2023-02-19T10:39:29;100196.39;;;14.99;21.33
49529;BME280;35423;37.320;-121.762;2023-02-19T10:41:48;100196.61;;;14.91;21.37
49529;BME280;35423;37.320;-121.762;2023-02-19T10:44:17;100194.30;;;15.13;21.28
49529;BME280;35423;37.320;-121.762;2023-02-19T10:46:43;100195.29;;;14.80;21.25
49529;BME280;35423;37.320;-121.762;2023-02-19T10:49:16;100193.92;;;14.74;21.23
49529;BME280;35423;37.320;-121.762;2023-02-19T10:51:36;100189.96;;;14.69;21.27
49529;BME280;35423;37.320;-121.762;2023-02-19T10:54:04;100191.14;;;14.62;21.40
49529;BME280;35423;37.320;-121.762;2023-02-19T10:56:26;100192.71;;;14.86;21.47
49529;BME280;35423;37.320;-121.762;2023-02-19T10:58:51;100191.66;;;14.54;21.48
49529;BME280;35423;37.320;-121.762;2023-02-19T11:01:31;100185.96;;;14.48;21.56
49529;BME280;35423;37.320;-121.762;2023-02-19T11:06:20;100177.60;;;14.77;21.70
49529;BME280;35423;37.320;-121.762;2023-02-19T11:08:53;100176.35;;;14.83;21.68
49529;BME280;35423;37.320;-121.762;2023-02-19T11:13:41;100181.83;;;14.64;21.72
49529;BME280;35423;37.320;-121.762;2023-02-19T11:16:16;100183.93;;;14.82;21.67
49529;BME280;35423;37.320;-121.762;2023-02-19T11:18:36;100186.89;;;14.52;21.66
49529;BME280;35423;37.320;-121.762;2023-02-19T11:21:04;100187.28;;;14.41;21.75
49529;BME280;35423;37.320;-121.762;2023-02-19T11:23:33;100184.79;;;14.37;21.83
49529;BME280;35423;37.320;-121.762;2023-02-19T11:25:59;100183.64;;;14.58;21.84
49529;BME280;35423;37.320;-121.762;2023-02-19T11:28:29;100184.54;;;14.33;21.77
49529;BME280;35423;37.320;-121.762;2023-02-19T11:30:51;100182.46;;;14.54;21.86
49529;BME280;35423;37.320;-121.762;2023-02-19T11:33:24;100182.81;;;13.96;21.87
49529;BME280;35423;37.320;-121.762;2023-02-19T11:35:46;100182.88;;;14.38;21.96
49529;BME280;35423;37.320;-121.762;2023-02-19T11:38:12;100184.13;;;14.32;22.13
49529;BME280;35423;37.320;-121.762;2023-02-19T11:40:38;100190.17;;;14.24;22.30
49529;BME280;35423;37.320;-121.762;2023-02-19T11:43:05;100191.81;;;14.17;22.40
49529;BME280;35423;37.320;-121.762;2023-02-19T11:45:35;100193.60;;;14.14;22.50
49529;BME280;35423;37.320;-121.762;2023-02-19T11:48:06;100197.46;;;13.86;22.58
49529;BME280;35423;37.320;-121.762;2023-02-19T11:50:26;100200.12;;;13.83;22.55
49529;BME280;35423;37.320;-121.762;2023-02-19T11:52:57;100197.55;;;14.20;22.57
49529;BME280;35423;37.320;-121.762;2023-02-19T11:55:17;100194.84;;;14.14;22.49
49529;BME280;35423;37.320;-121.762;2023-02-19T11:57:44;100193.86;;;14.12;22.32
49529;BME280;35423;37.320;-121.762;2023-02-19T12:10:06;100205.55;;;13.74;22.37
49529;BME280;35423;37.320;-121.762;2023-02-19T12:12:25;100200.98;;;13.71;22.44
49529;BME280;35423;37.320;-121.762;2023-02-19T12:14:51;100207.78;;;13.70;22.53
49529;BME280;35423;37.320;-121.762;2023-02-19T12:17:15;100209.49;;;13.85;22.60
49529;BME280;35423;37.320;-121.762;2023-02-19T12:19:44;100206.05;;;13.58;22.60
49529;BME280;35423;37.320;-121.762;2023-02-19T12:22:10;100204.63;;;13.53;22.60
49529;BME280;35423;37.320;-121.762;2023-02-19T12:24:38;100202.65;;;13.48;22.55
49529;BME280;35423;37.320;-121.762;2023-02-19T12:27:06;100203.73;;;13.44;22.58
49529;BME280;35423;37.320;-121.762;2023-02-19T12:29:35;100203.70;;;13.60;22.71
49529;BME280;35423;37.320;-121.762;2023-02-19T12:32:01;100203.93;;;13.59;22.71
49529;BME280;35423;37.320;-121.762;2023-02-19T12:34:29;100205.03;;;13.54;22.82
49529;BME280;35423;37.320;-121.762;2023-02-19T12:36:52;100202.55;;;13.74;22.77
49529;BME280;35423;37.320;-121.762;2023-02-19T12:39:16;100201.37;;;13.63;22.81
49529;BME280;35423;37.320;-121.762;2023-02-19T12:41:41;100198.62;;;13.62;22.85